createdAt,value
2022-10-11T08:34:53.853Z,24.07
2022-10-11T08:35:54.818Z,23.84
2022-10-11T08:36:55.774Z,23.73
2022-10-11T08:37:56.738Z,23.91
2022-10-11T08:38:57.723Z,23.92
2022-10-11T08:39:58.694Z,24.18
2022-10-11T08:40:59.669Z,23.95
2022-10-11T08:42:00.615Z,22.63
2022-10-11T08:43:01.575Z,22.37
2022-10-11T08:44:02.571Z,22.08
2022-10-11T08:45:10.918Z,21.99
2022-10-11T08:46:05.709Z,22.00
2022-10-11T08:47:05.295Z,21.70
2022-10-11T08:48:06.271Z,21.28
2022-10-11T08:49:07.262Z,21.38
2022-10-11T08:50:07.812Z,22.04
2022-10-11T08:51:08.234Z,22.22
2022-10-11T08:52:09.208Z,22.78
2022-10-11T08:53:10.154Z,23.37
2022-10-11T08:54:11.143Z,23.59
2022-10-11T08:55:12.149Z,23.37
2022-10-11T08:56:12.728Z,23.16
2022-10-11T08:57:13.152Z,22.51
2022-10-11T08:58:14.211Z,21.66
2022-10-11T08:59:14.622Z,21.23
2022-10-11T09:00:15.563Z,21.04
2022-10-11T09:01:16.530Z,20.80
2022-10-11T09:02:17.548Z,20.68
2022-10-11T09:03:18.414Z,20.92
2022-10-11T09:04:19.366Z,21.28
2022-10-11T09:05:20.302Z,21.78
2022-10-11T09:06:21.217Z,22.23
2022-10-11T09:07:22.196Z,22.37
2022-10-11T09:08:23.163Z,23.13
2022-10-11T09:09:24.108Z,23.85
2022-10-11T09:10:25.065Z,24.62
2022-10-11T09:11:25.996Z,24.77
2022-10-11T09:12:30.987Z,24.63
2022-10-11T09:13:28.748Z,24.50
2022-10-11T09:14:28.651Z,24.13
2022-10-11T09:15:29.609Z,23.96
2022-10-11T09:16:30.537Z,24.21
2022-10-11T09:17:31.480Z,24.01
2022-10-11T09:18:32.401Z,24.13
2022-10-11T09:19:33.330Z,24.53
2022-10-11T09:20:34.260Z,24.74
2022-10-11T09:21:35.182Z,24.59
2022-10-11T09:22:36.100Z,24.01
2022-10-11T09:23:37.028Z,23.94
2022-10-11T09:24:37.958Z,24.36
2022-10-11T09:25:38.946Z,24.77
2022-10-11T09:26:39.855Z,25.19
2022-10-11T09:28:01.706Z,25.14
2022-10-11T09:28:42.662Z,26.11
2022-10-11T09:29:42.135Z,26.70
2022-10-11T09:30:43.081Z,26.97
2022-10-11T09:31:44.074Z,27.35
2022-10-11T09:32:44.942Z,27.73
2022-10-11T09:33:45.911Z,28.19
2022-10-11T09:34:46.879Z,28.56
2022-10-11T09:35:47.923Z,28.87
2022-10-11T09:36:48.307Z,28.92
2022-10-11T09:37:49.230Z,28.78
2022-10-11T09:38:50.182Z,29.10
2022-10-11T09:39:51.076Z,28.74
2022-10-11T09:40:52.075Z,28.03
2022-10-11T09:41:53.048Z,28.19
2022-10-11T09:42:53.952Z,28.16
2022-10-11T09:43:54.911Z,28.34
2022-10-11T09:44:55.821Z,28.71
2022-10-11T09:45:56.471Z,29.21
2022-10-11T09:46:57.403Z,29.58
2022-10-11T09:47:58.319Z,29.62
2022-10-11T09:48:59.255Z,29.53
2022-10-11T09:50:00.190Z,29.61
2022-10-11T09:51:01.153Z,29.76
2022-10-11T09:52:02.086Z,29.89
2022-10-11T09:53:03.021Z,30.55
2022-10-11T09:54:03.974Z,31.02
2022-10-11T09:55:04.895Z,31.45
2022-10-11T09:56:06.083Z,31.47
2022-10-11T09:57:06.675Z,31.35
2022-10-11T09:58:07.609Z,31.25
2022-10-11T09:59:08.612Z,30.99
2022-10-11T10:00:09.462Z,31.41
2022-10-11T10:01:10.682Z,32.23
2022-10-11T10:02:13.132Z,32.95
2022-10-11T10:03:12.644Z,33.22
2022-10-11T10:04:12.580Z,32.45
2022-10-11T10:05:13.523Z,30.21
2022-10-11T10:06:14.499Z,28.35
2022-10-11T10:07:15.439Z,27.05
2022-10-11T10:08:16.333Z,26.07
2022-10-11T10:09:17.260Z,25.15
2022-10-11T10:10:18.207Z,24.21
2022-10-11T10:11:19.122Z,23.67
2022-10-11T10:12:20.060Z,23.28
2022-10-11T10:13:20.969Z,23.02
2022-10-11T10:14:21.925Z,22.76
2022-10-11T10:15:22.875Z,22.31
2022-10-11T10:16:23.831Z,21.74
2022-10-11T10:17:24.780Z,21.41
2022-10-11T10:18:25.723Z,21.01
2022-10-11T10:19:26.645Z,20.68
2022-10-11T10:20:27.596Z,20.37
2022-10-11T10:21:28.535Z,20.03
2022-10-11T10:22:29.489Z,19.87
2022-10-11T10:23:30.434Z,19.85
2022-10-11T10:24:31.334Z,19.64
2022-10-11T10:25:32.281Z,19.35
2022-10-11T10:26:33.215Z,19.20
2022-10-11T10:27:34.154Z,19.11
2022-10-11T10:28:35.182Z,18.94
2022-10-11T10:29:35.622Z,18.76
2022-10-11T10:30:36.558Z,18.71
2022-10-11T10:31:55.269Z,18.66
2022-10-11T10:32:39.270Z,18.82
2022-10-11T10:33:39.218Z,21.75
2022-10-11T10:34:40.180Z,23.71
2022-10-11T10:35:41.084Z,25.30
2022-10-11T10:36:42.020Z,26.55
2022-10-11T10:37:42.957Z,27.61
2022-10-11T10:38:46.499Z,28.40
2022-10-11T10:39:44.531Z,29.18
2022-10-11T10:40:45.465Z,29.98
2022-10-11T10:41:46.437Z,30.33
2022-10-11T10:42:47.360Z,30.38
2022-10-11T10:43:48.299Z,30.51
2022-10-11T10:44:49.233Z,30.55
2022-10-11T10:45:50.152Z,30.74
2022-10-11T10:46:51.104Z,30.92
2022-10-11T10:47:52.043Z,30.61
2022-10-11T10:49:55.324Z,30.76
2022-10-11T10:50:54.317Z,30.88
2022-10-11T10:51:55.259Z,30.33
2022-10-11T10:52:56.192Z,29.79
2022-10-11T10:53:57.126Z,30.11
2022-10-11T10:54:58.049Z,30.02
2022-10-11T10:55:58.981Z,30.49
2022-10-11T10:56:59.910Z,30.76
2022-10-11T10:58:00.839Z,30.86
2022-10-11T10:59:01.765Z,31.39
2022-10-11T11:00:02.684Z,31.78
2022-10-11T11:01:03.639Z,31.48
2022-10-11T11:02:15.994Z,30.40
2022-10-11T11:03:06.376Z,30.85
2022-10-11T11:04:06.302Z,31.32
2022-10-11T11:05:07.232Z,31.63
2022-10-11T11:06:08.576Z,32.09
2022-10-11T11:07:08.898Z,31.90
2022-10-11T11:08:09.790Z,32.02
2022-10-11T11:09:10.760Z,32.48
2022-10-11T11:10:11.700Z,32.93
2022-10-11T11:11:12.670Z,32.90
2022-10-11T11:12:13.574Z,32.76
2022-10-11T11:13:14.487Z,32.78
2022-10-11T11:14:15.439Z,32.68
2022-10-11T11:15:16.346Z,32.81
2022-10-11T11:16:17.253Z,33.12
2022-10-11T11:17:18.214Z,33.42
2022-10-11T11:18:19.156Z,33.69
2022-10-11T11:19:20.073Z,33.98
2022-10-11T11:20:21.009Z,33.22
2022-10-11T11:21:21.964Z,30.65
2022-10-11T11:22:22.922Z,29.53
2022-10-11T11:23:23.802Z,27.72
2022-10-11T11:24:24.724Z,26.13
2022-10-11T11:25:26.610Z,25.39
2022-10-11T11:26:26.530Z,25.01
2022-10-11T11:27:27.466Z,24.59
2022-10-11T11:28:28.468Z,24.22
2022-10-11T11:29:29.375Z,23.89
2022-10-11T11:30:30.347Z,23.59
2022-10-11T11:31:31.352Z,23.82
2022-10-11T11:32:31.899Z,26.13
2022-10-11T11:33:32.420Z,28.23
2022-10-11T11:34:34.355Z,29.71
2022-10-11T11:35:34.385Z,30.69
2022-10-11T11:36:34.847Z,29.35
2022-10-11T11:37:36.590Z,28.30
2022-10-11T11:38:36.503Z,29.06
2022-10-11T11:39:37.437Z,30.03
2022-10-11T11:40:38.458Z,31.07
2022-10-11T11:41:38.916Z,31.85
2022-10-11T11:42:39.834Z,32.53
2022-10-11T11:43:41.873Z,32.90
2022-10-11T11:44:41.313Z,33.47
2022-10-11T11:45:42.238Z,33.76
2022-10-11T11:46:43.175Z,33.88
2022-10-11T11:47:45.249Z,34.31
2022-10-11T11:48:44.634Z,34.69
2022-10-11T11:49:45.569Z,35.26
2022-10-11T11:50:46.524Z,35.71
2022-10-11T11:51:47.465Z,36.05
2022-10-11T11:52:49.486Z,35.86
2022-10-11T11:53:48.885Z,35.30
2022-10-11T11:54:49.897Z,34.73
2022-10-11T11:55:50.860Z,34.14
2022-10-11T11:56:51.276Z,33.85
2022-10-11T11:57:52.219Z,32.83
2022-10-11T11:58:54.242Z,32.04
2022-10-11T11:59:53.669Z,31.41
2022-10-11T12:00:54.663Z,30.93
2022-10-11T12:01:55.629Z,31.22
2022-10-11T12:02:56.532Z,31.97
2022-10-11T12:03:57.846Z,32.49
2022-10-11T12:04:58.257Z,32.71
2022-10-11T12:05:59.177Z,32.93
2022-10-11T12:07:15.498Z,32.95
2022-10-11T12:08:01.987Z,33.28
2022-10-11T12:09:02.628Z,33.75
2022-10-11T12:10:02.572Z,33.95
2022-10-11T12:11:03.739Z,34.18
2022-10-11T12:12:04.302Z,34.65
2022-10-11T12:13:05.258Z,35.01
2022-10-11T12:14:06.198Z,35.44
2022-10-11T12:15:07.130Z,35.88
2022-10-11T12:16:08.085Z,36.33
2022-10-11T12:17:08.988Z,36.51
2022-10-11T12:18:10.334Z,36.73
2022-10-11T12:19:10.760Z,37.04
2022-10-11T12:20:11.690Z,37.41
2022-10-11T12:21:12.625Z,37.58
2022-10-11T12:22:14.633Z,37.71
2022-10-11T12:23:19.104Z,37.71
2022-10-11T12:24:16.389Z,36.43
2022-10-11T12:25:18.607Z,34.28
2022-10-11T12:26:16.760Z,33.61
2022-10-11T12:27:17.776Z,34.65
2022-10-11T12:28:18.322Z,34.85
2022-10-11T12:29:18.751Z,35.72
2022-10-11T12:30:20.600Z,35.37
2022-10-11T12:31:20.552Z,34.38
2022-10-11T12:32:22.093Z,34.00
2022-10-11T12:33:22.042Z,32.41
2022-10-11T12:34:22.707Z,30.74
2022-10-11T12:35:23.618Z,29.58
2022-10-11T12:36:24.548Z,28.74
2022-10-11T12:37:25.495Z,28.19
2022-10-11T12:38:26.413Z,27.68
2022-10-11T12:39:27.363Z,27.13
2022-10-11T12:40:28.384Z,26.44
2022-10-11T12:41:29.604Z,25.78
2022-10-11T12:42:29.541Z,26.93
2022-10-11T12:43:30.507Z,27.01
2022-10-11T12:44:32.146Z,26.78
2022-10-11T12:45:32.038Z,27.18
2022-10-11T12:46:33.041Z,28.65
2022-10-11T12:47:34.080Z,27.91
2022-10-11T12:48:39.914Z,27.18
2022-10-11T12:49:36.977Z,26.68
2022-10-11T12:50:35.820Z,26.03
2022-10-11T12:51:36.924Z,25.46
2022-10-11T12:52:37.338Z,25.09
2022-10-11T12:53:38.388Z,24.68
2022-10-11T12:54:38.747Z,24.01
2022-10-11T12:55:39.657Z,23.32
2022-10-11T12:56:40.590Z,22.86
2022-10-11T12:57:46.129Z,22.36
2022-10-11T12:58:43.400Z,21.85
2022-10-11T12:59:42.822Z,21.45
2022-10-11T13:00:43.768Z,21.75
2022-10-11T13:01:44.753Z,23.95
2022-10-11T13:02:45.726Z,26.42
2022-10-11T13:03:46.204Z,27.79
2022-10-11T13:04:47.235Z,28.64
2022-10-11T13:05:53.498Z,29.81
2022-10-11T13:06:49.912Z,30.35
2022-10-11T13:07:49.829Z,30.63
2022-10-11T13:08:50.813Z,30.91
2022-10-11T13:09:51.844Z,31.47
2022-10-11T13:10:53.028Z,31.82
2022-10-11T13:11:53.755Z,32.24
2022-10-11T13:12:54.353Z,32.48
2022-10-11T13:13:54.740Z,32.57
2022-10-11T13:14:56.076Z,32.01
2022-10-11T13:15:56.458Z,32.29
2022-10-11T13:16:57.379Z,32.39
2022-10-11T13:17:58.328Z,32.94
2022-10-11T13:18:59.346Z,33.75
2022-10-11T13:20:00.289Z,34.33
2022-10-11T13:21:01.330Z,34.60
2022-10-11T13:22:01.698Z,35.22
2022-10-11T13:23:02.646Z,35.19
2022-10-11T13:24:03.597Z,35.38
2022-10-11T13:25:04.520Z,35.01
2022-10-11T13:26:05.441Z,34.91
2022-10-11T13:27:06.379Z,34.78
2022-10-11T13:28:07.343Z,35.07
2022-10-11T13:29:08.228Z,35.26
2022-10-11T13:30:09.245Z,35.32
2022-10-11T13:31:10.081Z,35.30
2022-10-11T13:32:11.021Z,35.26
2022-10-11T13:33:11.944Z,35.07
2022-10-11T13:34:12.897Z,35.23
2022-10-11T13:35:13.845Z,35.42
2022-10-11T13:36:14.858Z,35.76
2022-10-11T13:37:15.730Z,35.96
2022-10-11T13:38:16.658Z,36.06
2022-10-11T13:39:18.719Z,36.31
2022-10-11T13:40:18.176Z,36.31
2022-10-11T13:41:19.057Z,36.08
2022-10-11T13:42:19.999Z,35.82
2022-10-11T13:43:20.920Z,35.76
2022-10-11T13:44:21.845Z,35.20
2022-10-11T13:45:22.843Z,35.20
2022-10-11T13:46:23.775Z,35.18
2022-10-11T13:47:24.682Z,35.05
2022-10-11T13:48:30.745Z,35.15
2022-10-11T13:49:27.607Z,35.13
2022-10-11T13:50:28.153Z,35.10
2022-10-11T13:51:27.524Z,35.16
2022-10-11T13:52:28.476Z,35.32
2022-10-11T13:53:29.412Z,35.20
2022-10-11T13:54:30.444Z,35.39
2022-10-11T13:55:30.852Z,35.57
2022-10-11T13:56:31.759Z,35.39
2022-10-11T13:57:32.668Z,35.07
2022-10-11T13:58:33.641Z,34.82
2022-10-11T13:59:34.562Z,34.33
2022-10-11T14:00:35.487Z,34.02
2022-10-11T14:01:36.483Z,33.40
2022-10-11T14:02:37.332Z,33.47
2022-10-11T14:03:38.254Z,33.19
2022-10-11T14:04:39.245Z,32.75
2022-10-11T14:05:41.139Z,32.54
